createdAt,value
2018-11-22T00:12:25.858Z,57.6
2018-11-22T00:17:34.792Z,57.8
2018-11-22T00:22:43.543Z,57.8
2018-11-22T00:33:01.377Z,57.8
2018-11-22T00:43:19.038Z,57.8
2018-11-22T00:53:36.767Z,58.4
2018-11-22T01:03:54.470Z,58.4
2018-11-22T01:14:12.173Z,58.5
2018-11-22T01:19:20.956Z,58.5
2018-11-22T01:24:29.798Z,58
2018-11-22T01:45:05.326Z,58.3
2018-11-22T01:55:23.090Z,58.3
2018-11-22T02:15:58.700Z,58.6
2018-11-22T02:36:34.178Z,59.2
2018-11-22T02:57:09.919Z,59.4
2018-11-22T03:07:27.724Z,59.4
2018-11-22T03:38:21.055Z,58.9
2018-11-22T03:43:29.953Z,59.1
2018-11-22T03:48:38.719Z,59
2018-11-22T03:58:56.491Z,59.3
2018-11-22T04:09:14.197Z,59.1
2018-11-22T04:19:32.039Z,59.5
2018-11-22T04:40:07.408Z,59
2018-11-22T04:45:16.241Z,58.9
2018-11-22T04:50:25.088Z,58.8
2018-11-22T05:11:00.431Z,58.5
2018-11-22T05:21:18.121Z,58.4
2018-11-22T05:41:53.316Z,58.2
2018-11-22T05:52:10.914Z,57.6
2018-11-22T05:57:19.678Z,58
2018-11-22T06:02:28.508Z,57.8
2018-11-22T06:23:03.664Z,57.6
2018-11-22T06:33:21.123Z,57.5
2018-11-22T06:53:56.186Z,57.5
2018-11-22T07:04:13.696Z,57.7
2018-11-22T07:24:48.690Z,58
2018-11-22T07:35:06.175Z,58.4
2018-11-22T07:45:23.726Z,58.2
2018-11-22T08:05:58.475Z,57.4
2018-11-22T08:21:24.636Z,56.9
2018-11-22T08:47:07.987Z,56.3
2018-11-22T08:57:25.331Z,55.7
2018-11-22T09:07:42.700Z,55.5
2018-11-22T09:12:51.376Z,55.5
2018-11-22T09:28:17.290Z,55.2
2018-11-22T09:48:51.977Z,54.8
2018-11-22T10:24:52.297Z,53.7
2018-11-22T10:30:00.895Z,53.4
2018-11-22T10:40:18.171Z,53.7
2018-11-22T10:50:35.273Z,52.5
2018-11-22T11:11:09.637Z,52
2018-11-22T11:21:26.813Z,51.6
2018-11-22T11:26:35.385Z,52.4
2018-11-22T11:31:43.971Z,52.7
2018-11-22T11:42:00.996Z,52.4
2018-11-22T12:02:35.235Z,51.9
2018-11-22T12:12:52.350Z,51.9
2018-11-22T12:18:00.936Z,52.4
2018-11-22T12:23:09.590Z,51.8
2018-11-22T12:33:26.624Z,51.8
2018-11-22T12:54:00.772Z,52.3
2018-11-22T13:04:17.885Z,51.9
2018-11-22T13:14:35.067Z,51.2
2018-11-22T13:24:52.167Z,51
2018-11-22T13:55:43.467Z,51.8
2018-11-22T14:06:00.436Z,51.1
2018-11-22T14:16:17.658Z,52
2018-11-22T14:26:34.737Z,51.7
2018-11-22T14:36:51.754Z,51.8
2018-11-22T14:47:08.886Z,50.9
2018-11-22T14:57:25.955Z,51.1
2018-11-22T15:02:36.131Z,51.1
2018-11-22T15:28:17.391Z,51.5
2018-11-22T15:38:34.509Z,51.3
2018-11-22T15:48:51.531Z,51.3
2018-11-22T16:09:25.962Z,51.8
2018-11-22T16:19:43.126Z,51.6
2018-11-22T16:40:17.625Z,51.8
2018-11-22T17:21:26.495Z,53
2018-11-22T17:31:43.862Z,53
2018-11-22T17:42:01.141Z,53
2018-11-22T17:57:26.975Z,53.4
2018-11-22T18:02:35.693Z,53.2
2018-11-22T18:12:53.042Z,53.4
2018-11-22T18:23:10.378Z,52.9
2018-11-22T18:33:27.673Z,53.2
2018-11-22T18:38:36.364Z,53.8
2018-11-22T18:48:53.668Z,54
2018-11-22T18:54:02.458Z,53.9
2018-11-22T19:04:19.740Z,54
2018-11-22T19:09:28.451Z,53.9
2018-11-22T19:14:37.074Z,54.1
2018-11-22T19:19:45.836Z,54.3
2018-11-22T19:24:54.504Z,54.2
2018-11-22T19:35:11.891Z,54.4
2018-11-22T19:40:20.591Z,54.5
2018-11-22T19:45:29.228Z,55
2018-11-22T19:50:37.948Z,54.8
2018-11-22T19:55:46.675Z,54.6
2018-11-22T20:00:55.369Z,54.3
2018-11-22T20:06:04.071Z,54.1
2018-11-22T20:11:12.744Z,54.4
2018-11-22T20:16:21.367Z,54.3
2018-11-22T20:21:30.159Z,54.4
2018-11-22T20:31:47.617Z,54.2
2018-11-22T20:36:56.356Z,54.1
2018-11-22T20:42:05.063Z,54.1
2018-11-22T20:47:13.777Z,53.8
2018-11-22T20:57:31.249Z,54.3
2018-11-22T21:02:40.036Z,54.5
2018-11-22T21:07:48.772Z,54.4
2018-11-22T21:12:57.492Z,54.6
2018-11-22T21:18:06.262Z,55
2018-11-22T21:23:14.904Z,55.1
2018-11-22T21:28:23.724Z,54.8
2018-11-22T21:38:41.227Z,55.5
2018-11-22T21:43:49.994Z,54.9
2018-11-22T21:48:58.761Z,55.6
2018-11-22T21:54:07.544Z,54.8
2018-11-22T21:59:16.362Z,55
2018-11-22T22:04:25.026Z,54.8
2018-11-22T22:14:42.698Z,55.7
2018-11-22T22:19:51.424Z,55.4
2018-11-22T22:25:00.343Z,55.5
2018-11-22T22:30:09.037Z,55.6
2018-11-22T22:40:26.696Z,55.7
2018-11-22T22:45:35.505Z,55.4
2018-11-22T22:50:44.347Z,55.7
2018-11-22T22:55:53.197Z,55.7
2018-11-22T23:01:02.008Z,55.9
2018-11-22T23:06:10.839Z,55.8
2018-11-22T23:11:19.595Z,55.2
2018-11-22T23:16:28.521Z,55.3
2018-11-22T23:21:37.335Z,55.1
2018-11-22T23:26:46.203Z,55
2018-11-22T23:31:55.032Z,54.7
2018-11-22T23:42:12.731Z,54.6
2018-11-22T23:47:21.598Z,54.5
2018-11-22T23:57:39.376Z,54.4
